Paradise, Montana
Current Conditions -  °F | °C
As of 10:53 AM on Sunday 21 Dec 2014 (Local Time) from KMSO Reporting Station
Broken Clouds Broken Clouds  
Wind Chill: 36°   Ceiling: 11000
Heat Index: 43°   Visibility: 10mi
Dew Point: 36°   Wind: 14mph
Humidity: 76%   Direction: 320°NW
Pressure: 29.66"   Gusts: 24mph
Location:  47.39°N, 114.8°W
Report Text: KMSO 211753Z 32012G21KT 10SM FEW040 SCT070 BKN110 06/02 A2966 RMK AO2 RAE22B40E50 SLP061 P0000 60006 T00610022 10061 21006 51032 $
Loading
Personal Weather Stations






























Interactive Weather Map New forecast layout! Learn more

10-Day Weather Forecast

Advertisements
Track Severe Weather on mobile